Time;durP1;ratioP1;P1;durP2;ratioP2;P2;SDS_P1;SDS_P2;PMS_P1;PMS_P2;Temp;Humidity;BMP_temperature;BMP_pressure;BME280_temperature;BME280_humidity;BME280_pressure;Samples;Min_cycle;Max_cycle;Signal;HPM_P1;HPM_P2
2022/12/30 00:01:55;;;;;;;6.03;1.90;;;;;;;;;;7388240;19;20006;-71
2022/12/30 00:04:20;;;;;;;5.03;1.35;;;;;;;;;;7387638;19;20023;-69
2022/12/30 00:06:47;;;;;;;10.70;1.77;;;;;;;;;;7387292;19;20480;-69
2022/12/30 00:09:13;;;;;;;6.60;1.50;;;;;;;;;;7388719;19;20090;-69
2022/12/30 00:11:38;;;;;;;8.20;1.75;;;;;;;;;;7388312;19;20587;-69
2022/12/30 00:34:16;;;;;;;8.15;1.48;;;;;;;;;;7394437;19;20032;-70
2022/12/30 00:36:42;;;;;;;6.55;1.67;;;;;;;;;;7395077;19;20010;-70
2022/12/30 00:39:07;;;;;;;15.90;2.45;;;;;;;;;;7394831;19;20001;-69
2022/12/30 00:44:16;;;;;;;7.95;1.90;;;;;;;;;;7394816;19;20087;-69
2022/12/30 00:46:43;;;;;;;11.38;2.10;;;;;;;;;;7392872;19;20591;-69
2022/12/30 00:57:21;;;;;;;5.72;1.38;;;;;;;;;;7394308;19;20359;-71
2022/12/30 00:59:46;;;;;;;11.35;2.20;;;;;;;;;;7393593;19;20003;-70
2022/12/30 01:02:12;;;;;;;5.35;1.70;;;;;;;;;;7391825;19;20010;-69
2022/12/30 01:04:37;;;;;;;9.60;1.92;;;;;;;;;;7391931;19;20678;-69
2022/12/30 01:07:02;;;;;;;4.43;1.95;;;;;;;;;;7391645;19;20461;-69
2022/12/30 01:09:28;;;;;;;9.43;1.67;;;;;;;;;;7391145;19;20069;-70
2022/12/30 01:12:08;;;;;;;7.85;1.90;;;;;;;;;;7391394;19;20043;-69
2022/12/30 01:14:38;;;;;;;4.20;1.77;;;;;;;;;;7388986;19;19999;-69
2022/12/30 01:17:04;;;;;;;9.40;1.63;;;;;;;;;;7389837;19;20002;-69
2022/12/30 01:19:29;;;;;;;9.77;2.28;;;;;;;;;;7391015;19;20031;-68
2022/12/30 01:21:55;;;;;;;7.05;1.40;;;;;;;;;;7396833;19;20366;-71
2022/12/30 01:24:21;;;;;;;11.32;1.65;;;;;;;;;;7390636;19;20082;-69
2022/12/30 01:26:46;;;;;;;9.93;1.92;;;;;;;;;;7392545;19;20010;-71
2022/12/30 01:29:36;;;;;;;13.20;1.80;;;;;;;;;;7396168;19;20332;-68
2022/12/30 01:32:05;;;;;;;12.85;2.70;;;;;;;;;;7395074;19;20012;-70
2022/12/30 01:34:31;;;;;;;10.45;1.95;;;;;;;;;;7392473;19;20015;-69
2022/12/30 01:36:56;;;;;;;10.00;1.88;;;;;;;;;;7393102;19;20025;-71
2022/12/30 01:39:22;;;;;;;6.50;1.48;;;;;;;;;;7392823;19;20079;-71
2022/12/30 01:41:47;;;;;;;9.57;1.50;;;;;;;;;;7392497;19;20006;-70
2022/12/30 01:44:52;;;;;;;12.82;2.33;;;;;;;;;;7391819;19;19999;-70
2022/12/30 01:47:29;;;;;;;7.07;1.77;;;;;;;;;;7393020;19;19994;-71
2022/12/30 01:50:02;;;;;;;9.20;2.33;;;;;;;;;;7393076;19;19998;-70
2022/12/30 01:52:27;;;;;;;9.40;2.10;;;;;;;;;;7391775;19;20487;-70
2022/12/30 01:55:02;;;;;;;11.02;1.90;;;;;;;;;;7391892;19;19994;-70
2022/12/30 01:57:28;;;;;;;10.32;2.40;;;;;;;;;;7393155;19;20330;-70
2022/12/30 01:59:54;;;;;;;12.57;1.80;;;;;;;;;;7392288;19;20667;-70
2022/12/30 02:02:20;;;;;;;5.97;1.55;;;;;;;;;;7390479;19;20084;-72
2022/12/30 02:04:45;;;;;;;8.73;2.22;;;;;;;;;;7390991;19;20003;-70
2022/12/30 02:07:18;;;;;;;8.48;1.75;;;;;;;;;;7392155;19;20009;-73
2022/12/30 02:09:45;;;;;;;5.05;1.58;;;;;;;;;;7391904;19;20026;-74
2022/12/30 02:12:11;;;;;;;8.55;2.00;;;;;;;;;;7391573;19;20032;-74
2022/12/30 02:14:39;;;;;;;7.78;1.58;;;;;;;;;;7390350;19;19998;-74
2022/12/30 02:17:26;;;;;;;5.75;1.75;;;;;;;;;;7389922;19;20013;-75
2022/12/30 02:20:11;;;;;;;11.82;1.98;;;;;;;;;;7390908;19;20006;-75
2022/12/30 02:23:08;;;;;;;12.48;2.22;;;;;;;;;;7389017;19;20013;-71
2022/12/30 02:26:01;;;;;;;12.90;2.38;;;;;;;;;;7390197;19;20002;-72
2022/12/30 02:28:38;;;;;;;9.07;1.98;;;;;;;;;;7389510;19;20007;-72
2022/12/30 02:31:43;;;;;;;13.05;2.00;;;;;;;;;;7394868;19;20413;-72
2022/12/30 02:34:34;;;;;;;7.25;1.67;;;;;;;;;;7387124;19;20007;-72
2022/12/30 02:37:33;;;;;;;6.80;2.00;;;;;;;;;;7391324;19;20002;-71
2022/12/30 02:40:24;;;;;;;10.10;2.00;;;;;;;;;;7391870;19;20088;-71
2022/12/30 02:46:05;;;;;;;7.53;1.83;;;;;;;;;;7390640;19;20019;-72
2022/12/30 02:48:34;;;;;;;6.40;1.92;;;;;;;;;;7387538;19;20050;-70
2022/12/30 02:53:45;;;;;;;11.57;2.10;;;;;;;;;;7387311;19;20014;-72
2022/12/30 02:56:10;;;;;;;10.30;1.60;;;;;;;;;;7389673;19;20002;-72
2022/12/30 02:58:38;;;;;;;8.73;1.67;;;;;;;;;;7389699;19;20003;-71
2022/12/30 03:04:30;;;;;;;6.22;1.73;;;;;;;;;;7384943;19;20013;-71
2022/12/30 03:07:07;;;;;;;12.02;1.95;;;;;;;;;;7389405;19;20010;-71
2022/12/30 03:11:12;;;;;;;12.23;2.53;;;;;;;;;;7389263;19;20013;-71
2022/12/30 03:13:14;;;;;;;9.32;1.88;;;;;;;;;;7386910;19;20002;-72
2022/12/30 03:15:58;;;;;;;10.73;2.10;;;;;;;;;;7387793;19;20338;-71
2022/12/30 03:18:25;;;;;;;11.57;1.80;;;;;;;;;;7390970;19;20023;-71
2022/12/30 03:20:51;;;;;;;7.07;1.92;;;;;;;;;;7387553;19;20003;-71
2022/12/30 03:28:53;;;;;;;10.18;1.70;;;;;;;;;;7386944;19;20035;-71
2022/12/30 03:31:19;;;;;;;9.75;1.98;;;;;;;;;;7388623;19;20002;-71
2022/12/30 03:33:45;;;;;;;7.90;1.88;;;;;;;;;;7386556;19;20311;-71
2022/12/30 03:36:19;;;;;;;13.68;2.55;;;;;;;;;;7392861;19;20015;-71
2022/12/30 03:38:58;;;;;;;12.23;2.65;;;;;;;;;;7388669;19;20006;-71
2022/12/30 03:41:24;;;;;;;14.57;2.90;;;;;;;;;;7387003;19;20431;-71
2022/12/30 03:43:50;;;;;;;12.27;2.28;;;;;;;;;;7385523;19;20006;-71
2022/12/30 03:46:18;;;;;;;9.30;2.53;;;;;;;;;;7388074;19;20653;-71
2022/12/30 03:48:44;;;;;;;9.82;2.25;;;;;;;;;;7388326;19;20019;-71
2022/12/30 03:51:09;;;;;;;7.20;2.28;;;;;;;;;;7388070;19;20575;-71
2022/12/30 03:53:34;;;;;;;13.35;2.83;;;;;;;;;;7385162;19;20002;-70
2022/12/30 03:55:59;;;;;;;10.02;2.58;;;;;;;;;;7385992;19;20457;-70
2022/12/30 03:58:25;;;;;;;5.20;2.50;;;;;;;;;;7387852;19;20067;-70
2022/12/30 04:00:50;;;;;;;6.18;2.58;;;;;;;;;;7383399;19;19998;-72
2022/12/30 04:03:16;;;;;;;7.65;2.38;;;;;;;;;;7385301;19;19995;-71
2022/12/30 04:05:41;;;;;;;13.27;2.40;;;;;;;;;;7387840;19;20010;-72
2022/12/30 04:08:07;;;;;;;13.77;2.50;;;;;;;;;;7387844;19;20459;-72
2022/12/30 04:10:32;;;;;;;7.50;2.03;;;;;;;;;;7387592;19;20406;-72
2022/12/30 04:12:57;;;;;;;11.30;2.75;;;;;;;;;;7385262;19;19999;-72
2022/12/30 04:15:23;;;;;;;14.27;2.65;;;;;;;;;;7387345;19;20002;-72
2022/12/30 04:17:48;;;;;;;5.68;2.17;;;;;;;;;;7388438;19;20003;-72
2022/12/30 04:20:13;;;;;;;7.25;2.42;;;;;;;;;;7386264;19;20733;-72
2022/12/30 04:22:39;;;;;;;14.80;3.08;;;;;;;;;;7386540;19;20003;-71
2022/12/30 04:25:04;;;;;;;14.85;5.10;;;;;;;;;;7387524;19;20058;-71
2022/12/30 04:27:30;;;;;;;12.57;3.50;;;;;;;;;;7387423;19;20006;-72
2022/12/30 04:29:55;;;;;;;13.15;2.92;;;;;;;;;;7386016;19;20482;-72
2022/12/30 04:32:20;;;;;;;10.73;2.63;;;;;;;;;;7387065;19;19995;-72
2022/12/30 04:34:46;;;;;;;14.38;2.72;;;;;;;;;;7386392;19;20497;-72
2022/12/30 04:37:11;;;;;;;11.80;2.65;;;;;;;;;;7387454;19;20018;-72
2022/12/30 04:39:36;;;;;;;15.23;2.53;;;;;;;;;;7388932;19;19999;-71
2022/12/30 04:42:02;;;;;;;15.55;2.85;;;;;;;;;;7386805;19;20087;-71
2022/12/30 04:44:27;;;;;;;12.07;2.72;;;;;;;;;;7385912;19;19998;-72
2022/12/30 04:46:52;;;;;;;13.45;2.90;;;;;;;;;;7386951;19;20058;-71
2022/12/30 04:49:18;;;;;;;17.80;3.15;;;;;;;;;;7386636;19;20528;-70
2022/12/30 04:51:43;;;;;;;10.13;3.03;;;;;;;;;;7386721;19;20099;-72
2022/12/30 04:54:08;;;;;;;15.65;3.22;;;;;;;;;;7381273;19;20428;-72
2022/12/30 04:56:34;;;;;;;10.60;2.88;;;;;;;;;;7386268;19;19998;-72
2022/12/30 04:58:59;;;;;;;10.00;2.88;;;;;;;;;;7386331;19;19990;-71
2022/12/30 05:01:24;;;;;;;14.32;2.10;;;;;;;;;;7382487;19;20009;-71
2022/12/30 05:03:49;;;;;;;8.05;2.33;;;;;;;;;;7383103;19;20107;-72
2022/12/30 05:06:15;;;;;;;5.07;1.98;;;;;;;;;;7386215;19;20009;-72
2022/12/30 05:08:40;;;;;;;7.25;1.98;;;;;;;;;;7385949;19;20468;-72
2022/12/30 05:11:05;;;;;;;8.60;1.85;;;;;;;;;;7385727;19;19995;-72
2022/12/30 05:13:31;;;;;;;8.75;2.38;;;;;;;;;;7389088;19;20002;-71
2022/12/30 05:15:56;;;;;;;8.98;2.10;;;;;;;;;;7393426;19;19994;-72
2022/12/30 05:18:21;;;;;;;6.55;2.17;;;;;;;;;;7396498;19;20475;-72
2022/12/30 05:20:47;;;;;;;8.63;2.35;;;;;;;;;;7391392;19;20401;-72
2022/12/30 05:26:14;;;;;;;7.70;2.08;;;;;;;;;;7396188;19;20011;-73
2022/12/30 05:28:44;;;;;;;6.07;1.90;;;;;;;;;;7391060;19;20365;-71
2022/12/30 05:31:10;;;;;;;9.77;2.22;;;;;;;;;;7392490;19;20134;-72
2022/12/30 05:33:36;;;;;;;5.90;2.08;;;;;;;;;;7388884;19;20103;-71
2022/12/30 05:36:01;;;;;;;7.20;2.20;;;;;;;;;;7392703;19;20003;-73
2022/12/30 05:38:27;;;;;;;10.25;2.35;;;;;;;;;;7392146;19;20047;-71
2022/12/30 05:40:52;;;;;;;5.85;2.00;;;;;;;;;;7390718;19;20009;-72
2022/12/30 05:43:18;;;;;;;7.22;2.10;;;;;;;;;;7389312;19;20826;-72
2022/12/30 05:45:43;;;;;;;8.10;2.40;;;;;;;;;;7392254;19;19995;-72
2022/12/30 05:48:08;;;;;;;6.07;2.30;;;;;;;;;;7390033;19;19995;-71
2022/12/30 05:50:33;;;;;;;11.82;2.50;;;;;;;;;;7391783;19;19994;-71
2022/12/30 05:52:59;;;;;;;8.10;3.00;;;;;;;;;;7387470;19;20002;-72
2022/12/30 05:55:25;;;;;;;9.73;2.08;;;;;;;;;;7391637;19;19994;-72
2022/12/30 05:57:50;;;;;;;10.32;1.85;;;;;;;;;;7391888;19;19998;-72
2022/12/30 06:00:16;;;;;;;15.50;2.47;;;;;;;;;;7390714;19;20033;-72
2022/12/30 06:02:41;;;;;;;8.18;2.40;;;;;;;;;;7389130;19;19995;-72
2022/12/30 06:05:07;;;;;;;14.20;3.35;;;;;;;;;;7390948;19;20058;-72
2022/12/30 06:07:33;;;;;;;16.75;3.00;;;;;;;;;;7389560;19;20062;-72
2022/12/30 06:09:58;;;;;;;9.18;3.50;;;;;;;;;;7391203;19;19999;-72
2022/12/30 06:12:23;;;;;;;9.30;2.58;;;;;;;;;;7389979;19;20014;-72
2022/12/30 06:14:49;;;;;;;5.07;1.88;;;;;;;;;;7388077;19;20413;-71
2022/12/30 06:17:14;;;;;;;12.00;3.53;;;;;;;;;;7389251;19;19994;-72
2022/12/30 06:19:39;;;;;;;7.65;3.63;;;;;;;;;;7388579;19;20506;-71
2022/12/30 06:22:04;;;;;;;10.80;2.78;;;;;;;;;;7388749;19;20007;-71
2022/12/30 06:24:30;;;;;;;6.65;2.55;;;;;;;;;;7385816;19;20540;-72
2022/12/30 06:26:55;;;;;;;13.70;2.33;;;;;;;;;;7391923;19;20005;-71
2022/12/30 06:29:20;;;;;;;10.43;2.70;;;;;;;;;;7394664;19;20022;-72
2022/12/30 06:31:46;;;;;;;10.45;2.50;;;;;;;;;;7392635;19;20002;-72
2022/12/30 06:34:11;;;;;;;12.23;2.50;;;;;;;;;;7390876;19;20002;-71
2022/12/30 06:36:36;;;;;;;10.10;2.60;;;;;;;;;;7390551;19;19997;-71
2022/12/30 06:39:02;;;;;;;10.68;2.30;;;;;;;;;;7388571;19;20006;-71
2022/12/30 06:41:27;;;;;;;10.18;3.25;;;;;;;;;;7388333;19;19999;-72
2022/12/30 06:43:53;;;;;;;41.33;17.02;;;;;;;;;;7387482;19;20610;-71
2022/12/30 06:46:18;;;;;;;22.25;8.60;;;;;;;;;;7391127;19;19995;-71
2022/12/30 06:48:43;;;;;;;17.65;5.20;;;;;;;;;;7395506;19;20006;-73
2022/12/30 06:51:09;;;;;;;14.00;3.70;;;;;;;;;;7391288;19;20361;-71
2022/12/30 06:53:34;;;;;;;11.25;3.30;;;;;;;;;;7388596;19;20409;-71
2022/12/30 06:56:00;;;;;;;15.48;6.90;;;;;;;;;;7391293;19;19999;-70
2022/12/30 06:58:26;;;;;;;12.98;2.65;;;;;;;;;;7391277;19;20003;-71
2022/12/30 07:00:51;;;;;;;6.20;2.10;;;;;;;;;;7389730;19;20332;-71
2022/12/30 07:03:17;;;;;;;11.20;2.88;;;;;;;;;;7389058;19;20024;-72
2022/12/30 07:05:42;;;;;;;8.77;3.38;;;;;;;;;;7394371;19;20007;-71
2022/12/30 07:08:07;;;;;;;13.13;3.28;;;;;;;;;;7389865;19;19998;-70
2022/12/30 07:10:33;;;;;;;9.63;4.15;;;;;;;;;;7391016;19;20007;-71
2022/12/30 07:12:58;;;;;;;19.02;7.78;;;;;;;;;;7387519;19;20014;-72
2022/12/30 07:15:24;;;;;;;14.25;5.38;;;;;;;;;;7394652;19;20035;-73
2022/12/30 07:17:49;;;;;;;34.75;14.27;;;;;;;;;;7394759;19;20066;-71
2022/12/30 07:20:15;;;;;;;25.00;10.75;;;;;;;;;;7394217;19;20459;-71
2022/12/30 07:22:41;;;;;;;21.70;10.68;;;;;;;;;;7392068;19;20003;-70
2022/12/30 07:25:07;;;;;;;12.68;5.85;;;;;;;;;;7392543;19;20476;-73
2022/12/30 07:27:32;;;;;;;12.05;4.22;;;;;;;;;;7394490;19;20061;-72
2022/12/30 07:29:57;;;;;;;10.23;4.65;;;;;;;;;;7393954;19;20009;-71
2022/12/30 07:32:23;;;;;;;16.90;4.97;;;;;;;;;;7393275;19;20077;-70
2022/12/30 07:34:48;;;;;;;13.18;6.80;;;;;;;;;;7393939;19;19999;-71
2022/12/30 07:37:13;;;;;;;13.68;4.88;;;;;;;;;;7393864;19;20013;-72
2022/12/30 07:39:39;;;;;;;14.18;2.72;;;;;;;;;;7391594;19;20006;-71
2022/12/30 07:42:04;;;;;;;9.55;3.05;;;;;;;;;;7391859;19;19994;-71
2022/12/30 07:44:42;;;;;;;9.05;2.90;;;;;;;;;;7388449;19;20013;-71
2022/12/30 07:47:07;;;;;;;8.18;2.25;;;;;;;;;;7386617;19;20002;-70
2022/12/30 07:49:32;;;;;;;11.07;3.55;;;;;;;;;;7386678;19;20135;-73
2022/12/30 07:51:58;;;;;;;8.88;2.95;;;;;;;;;;7387131;19;20022;-72
2022/12/30 07:54:23;;;;;;;6.93;2.15;;;;;;;;;;7386811;19;19995;-70
2022/12/30 07:56:48;;;;;;;9.90;3.10;;;;;;;;;;7386790;19;19998;-70
2022/12/30 07:59:14;;;;;;;7.97;3.30;;;;;;;;;;7390914;19;20066;-70
2022/12/30 08:01:39;;;;;;;10.10;2.50;;;;;;;;;;7383326;19;20500;-69
2022/12/30 08:04:06;;;;;;;9.30;2.40;;;;;;;;;;7385074;19;20018;-72
2022/12/30 08:06:31;;;;;;;14.40;2.28;;;;;;;;;;7387763;19;20016;-72
2022/12/30 08:08:56;;;;;;;8.60;2.28;;;;;;;;;;7392091;19;19991;-70
2022/12/30 08:11:22;;;;;;;9.77;2.35;;;;;;;;;;7392840;19;19995;-71
2022/12/30 08:13:47;;;;;;;9.88;2.53;;;;;;;;;;7397448;19;20031;-72
2022/12/30 08:16:16;;;;;;;7.10;2.22;;;;;;;;;;7398072;19;20019;-71
2022/12/30 08:18:43;;;;;;;8.13;2.22;;;;;;;;;;7391369;19;20456;-64
2022/12/30 08:21:14;;;;;;;9.45;2.42;;;;;;;;;;7390734;19;19999;-65
2022/12/30 08:23:40;;;;;;;7.88;2.15;;;;;;;;;;7390120;19;20010;-65
2022/12/30 08:26:07;;;;;;;11.10;3.20;;;;;;;;;;7392579;19;20002;-65
2022/12/30 08:28:33;;;;;;;6.85;2.28;;;;;;;;;;7397447;19;20088;-64
2022/12/30 08:31:03;;;;;;;6.72;2.40;;;;;;;;;;7383743;19;20035;-64
2022/12/30 08:33:31;;;;;;;8.23;2.72;;;;;;;;;;7388143;19;20007;-65
2022/12/30 08:36:03;;;;;;;6.47;2.40;;;;;;;;;;7386796;19;20023;-71
2022/12/30 08:38:29;;;;;;;7.93;2.20;;;;;;;;;;7389752;19;20023;-72
2022/12/30 08:41:03;;;;;;;5.10;2.17;;;;;;;;;;7389209;19;20473;-72
2022/12/30 08:43:28;;;;;;;7.82;2.55;;;;;;;;;;7388013;19;20006;-72
2022/12/30 08:45:57;;;;;;;5.13;2.05;;;;;;;;;;7391389;19;20010;-73
2022/12/30 08:48:23;;;;;;;6.47;2.00;;;;;;;;;;7401223;19;20389;-71
2022/12/30 08:50:48;;;;;;;8.35;3.20;;;;;;;;;;7398081;19;20003;-71
2022/12/30 08:53:13;;;;;;;6.53;2.20;;;;;;;;;;7392525;19;20026;-73
2022/12/30 08:55:39;;;;;;;11.90;2.67;;;;;;;;;;7396352;19;20017;-72
2022/12/30 08:58:04;;;;;;;7.45;2.50;;;;;;;;;;7392740;19;20026;-72
2022/12/30 09:00:29;;;;;;;10.27;2.13;;;;;;;;;;7392238;19;20037;-72
2022/12/30 09:02:55;;;;;;;6.10;2.20;;;;;;;;;;7390492;19;20003;-73
2022/12/30 09:05:20;;;;;;;11.05;3.15;;;;;;;;;;7397143;19;19998;-71
2022/12/30 09:07:45;;;;;;;7.75;2.75;;;;;;;;;;7396336;19;20329;-71
2022/12/30 09:10:12;;;;;;;6.50;2.28;;;;;;;;;;7397229;19;20426;-70
2022/12/30 09:12:38;;;;;;;5.15;2.17;;;;;;;;;;7393659;19;20104;-71
2022/12/30 09:15:04;;;;;;;8.23;2.38;;;;;;;;;;7395492;19;19998;-72
2022/12/30 09:17:29;;;;;;;7.55;2.47;;;;;;;;;;7394682;19;20013;-72
2022/12/30 09:19:54;;;;;;;7.15;2.40;;;;;;;;;;7393331;19;20002;-72
2022/12/30 09:22:20;;;;;;;7.82;2.55;;;;;;;;;;7396469;19;20005;-70
2022/12/30 09:24:45;;;;;;;6.63;2.47;;;;;;;;;;7393682;19;20010;-73
2022/12/30 09:27:10;;;;;;;9.50;2.78;;;;;;;;;;7394733;19;20002;-71
2022/12/30 09:29:36;;;;;;;6.93;2.28;;;;;;;;;;7386620;19;19999;-71
2022/12/30 09:32:01;;;;;;;10.88;2.90;;;;;;;;;;7393716;19;19995;-70
2022/12/30 09:34:26;;;;;;;11.52;2.83;;;;;;;;;;7386804;19;20023;-72
2022/12/30 09:36:52;;;;;;;7.95;2.28;;;;;;;;;;7391691;19;20027;-70
2022/12/30 09:39:17;;;;;;;8.02;2.80;;;;;;;;;;7391949;19;20006;-71
2022/12/30 09:44:48;;;;;;;6.63;3.10;;;;;;;;;;7392019;19;20023;-72
2022/12/30 09:47:24;;;;;;;6.90;2.50;;;;;;;;;;7392166;19;20006;-70
2022/12/30 09:49:55;;;;;;;9.18;2.50;;;;;;;;;;7394420;19;20003;-71
2022/12/30 09:52:33;;;;;;;8.93;2.88;;;;;;;;;;7393381;19;20006;-70
2022/12/30 09:55:29;;;;;;;7.25;3.03;;;;;;;;;;7393359;19;19999;-71
2022/12/30 09:57:58;;;;;;;7.35;2.72;;;;;;;;;;7391347;19;20003;-70
2022/12/30 10:00:26;;;;;;;7.28;3.33;;;;;;;;;;7392568;19;20005;-70
2022/12/30 10:03:16;;;;;;;8.27;3.30;;;;;;;;;;7390084;19;20600;-72
2022/12/30 10:05:41;;;;;;;10.25;3.20;;;;;;;;;;7394708;19;20483;-70
2022/12/30 10:08:15;;;;;;;5.13;2.42;;;;;;;;;;7392619;19;20011;-70
2022/12/30 10:10:47;;;;;;;8.70;3.58;;;;;;;;;;7395343;19;20006;-72
2022/12/30 10:13:23;;;;;;;8.68;4.13;;;;;;;;;;7390586;19;20006;-73
2022/12/30 10:16:09;;;;;;;8.05;4.03;;;;;;;;;;7394388;19;20013;-71
2022/12/30 10:18:53;;;;;;;6.93;3.67;;;;;;;;;;7398647;19;20468;-72
2022/12/30 10:21:24;;;;;;;9.98;3.80;;;;;;;;;;7397048;19;20002;-75
2022/12/30 10:23:57;;;;;;;10.48;4.10;;;;;;;;;;7390599;19;19995;-72
2022/12/30 10:26:25;;;;;;;10.88;3.47;;;;;;;;;;7395254;19;20472;-72
2022/12/30 10:29:03;;;;;;;9.05;4.30;;;;;;;;;;7390709;19;20031;-74
2022/12/30 10:31:31;;;;;;;8.23;3.92;;;;;;;;;;7393620;19;20531;-73
2022/12/30 10:34:08;;;;;;;6.95;3.67;;;;;;;;;;7389365;19;20003;-71
2022/12/30 10:36:57;;;;;;;9.85;4.95;;;;;;;;;;7393177;19;20045;-74
2022/12/30 10:39:28;;;;;;;7.30;4.22;;;;;;;;;;7392586;19;20010;-72
2022/12/30 10:42:15;;;;;;;8.30;4.40;;;;;;;;;;7390431;19;20581;-71
2022/12/30 10:45:04;;;;;;;10.23;4.63;;;;;;;;;;7392728;19;20350;-71
2022/12/30 10:47:42;;;;;;;10.27;3.92;;;;;;;;;;7391559;19;20022;-72
2022/12/30 10:50:26;;;;;;;8.88;4.60;;;;;;;;;;7391504;19;20010;-71
2022/12/30 10:52:52;;;;;;;8.05;4.25;;;;;;;;;;7390989;19;21105;-72
2022/12/30 10:55:25;;;;;;;11.23;4.65;;;;;;;;;;7395545;19;19998;-72
2022/12/30 10:57:58;;;;;;;10.77;4.47;;;;;;;;;;7386667;19;20514;-71
2022/12/30 11:00:24;;;;;;;10.07;4.05;;;;;;;;;;7395101;19;20026;-71
2022/12/30 11:02:58;;;;;;;8.52;4.68;;;;;;;;;;7395507;19;20003;-72
2022/12/30 11:05:39;;;;;;;10.45;3.20;;;;;;;;;;7395786;19;19991;-71
2022/12/30 11:08:06;;;;;;;;;;;;;;;;;;7393734;19;20010;-72
2022/12/30 11:10:31;;;;;;;7.00;2.90;;;;;;;;;;7391655;19;19926;-73
2022/12/30 11:16:01;;;;;;;5.93;2.70;;;;;;;;;;7374587;19;20125;-72
2022/12/30 11:18:29;;;;;;;7.10;2.70;;;;;;;;;;7387303;19;20408;-70
2022/12/30 11:20:58;;;;;;;7.05;2.60;;;;;;;;;;7388711;19;20013;-71
2022/12/30 11:23:26;;;;;;;4.97;2.10;;;;;;;;;;7386675;19;20474;-71
2022/12/30 11:25:51;;;;;;;4.47;2.20;;;;;;;;;;7387688;19;20010;-71
2022/12/30 11:28:31;;;;;;;4.95;2.35;;;;;;;;;;7389331;19;20027;-72
2022/12/30 11:31:12;;;;;;;5.72;2.20;;;;;;;;;;7385286;19;20186;-71
2022/12/30 11:33:45;;;;;;;5.60;1.92;;;;;;;;;;7387856;19;20009;-71
2022/12/30 11:36:16;;;;;;;4.93;2.20;;;;;;;;;;7389626;19;20551;-70
2022/12/30 11:38:45;;;;;;;4.93;2.00;;;;;;;;;;7391445;19;20026;-71
2022/12/30 11:41:16;;;;;;;6.13;2.10;;;;;;;;;;7387280;19;20020;-70
2022/12/30 11:43:43;;;;;;;5.47;2.05;;;;;;;;;;7388933;19;19999;-70
2022/12/30 11:46:17;;;;;;;5.03;2.33;;;;;;;;;;7386193;19;20503;-71
2022/12/30 11:48:54;;;;;;;3.30;1.77;;;;;;;;;;7391915;19;20009;-72
2022/12/30 11:51:22;;;;;;;3.92;2.05;;;;;;;;;;7389268;19;20022;-71
2022/12/30 11:54:00;;;;;;;5.47;2.05;;;;;;;;;;7387506;19;20006;-71
2022/12/30 11:56:26;;;;;;;2.75;1.65;;;;;;;;;;7389978;19;19999;-71
2022/12/30 11:58:52;;;;;;;4.95;2.85;;;;;;;;;;7390844;19;20444;-72
2022/12/30 12:01:17;;;;;;;4.10;1.98;;;;;;;;;;7387936;19;20365;-71
2022/12/30 12:03:51;;;;;;;5.15;1.98;;;;;;;;;;7389177;19;20003;-71
2022/12/30 12:06:16;;;;;;;3.90;1.80;;;;;;;;;;7389814;19;20051;-70
2022/12/30 12:08:52;;;;;;;4.60;1.58;;;;;;;;;;7391304;19;19991;-69
2022/12/30 12:11:29;;;;;;;4.43;2.35;;;;;;;;;;7387302;19;19999;-70
2022/12/30 12:14:34;;;;;;;4.88;1.90;;;;;;;;;;7385693;19;19999;-70
2022/12/30 12:17:31;;;;;;;5.55;1.95;;;;;;;;;;7387242;19;20002;-69
2022/12/30 12:20:03;;;;;;;3.13;1.50;;;;;;;;;;7400530;19;19998;-69
2022/12/30 12:23:03;;;;;;;2.72;1.35;;;;;;;;;;7395612;19;20286;-69
2022/12/30 12:25:35;;;;;;;2.85;1.60;;;;;;;;;;7380084;19;21402;-70
2022/12/30 12:28:00;;;;;;;2.65;1.63;;;;;;;;;;7390221;19;19995;-71
2022/12/30 12:30:40;;;;;;;3.25;1.38;;;;;;;;;;7384943;19;20472;-71
2022/12/30 12:33:22;;;;;;;3.88;1.67;;;;;;;;;;7386980;19;20003;-70
2022/12/30 12:36:14;;;;;;;2.45;1.45;;;;;;;;;;7388547;19;20006;-70
2022/12/30 12:39:02;;;;;;;3.00;1.55;;;;;;;;;;7389715;19;20018;-70
2022/12/30 12:41:47;;;;;;;2.60;1.30;;;;;;;;;;7385873;19;20465;-71
2022/12/30 12:44:34;;;;;;;4.20;1.45;;;;;;;;;;7383571;19;20023;-72
2022/12/30 12:47:21;;;;;;;2.05;1.23;;;;;;;;;;7387775;19;20335;-72
2022/12/30 12:49:55;;;;;;;3.45;1.10;;;;;;;;;;7390295;19;20062;-72
2022/12/30 12:52:42;;;;;;;7.95;1.70;;;;;;;;;;7386127;19;20010;-73
2022/12/30 12:55:39;;;;;;;4.25;1.40;;;;;;;;;;7386546;19;20070;-71
2022/12/30 12:58:11;;;;;;;4.50;1.48;;;;;;;;;;7388119;19;20032;-72
2022/12/30 13:00:51;;;;;;;2.80;0.95;;;;;;;;;;7389734;19;20032;-70
2022/12/30 13:03:29;;;;;;;2.05;1.17;;;;;;;;;;7385266;19;20002;-72
2022/12/30 13:06:13;;;;;;;3.70;1.42;;;;;;;;;;7388403;19;20359;-72
2022/12/30 13:09:08;;;;;;;3.55;1.55;;;;;;;;;;7386850;19;19998;-72
2022/12/30 13:11:54;;;;;;;2.30;1.48;;;;;;;;;;7385744;19;19999;-71
2022/12/30 13:14:51;;;;;;;2.95;1.17;;;;;;;;;;7382276;19;20476;-70
2022/12/30 13:17:35;;;;;;;3.50;1.48;;;;;;;;;;7388024;19;19999;-71
2022/12/30 13:20:09;;;;;;;3.65;1.70;;;;;;;;;;7385629;19;20031;-71
2022/12/30 13:22:36;;;;;;;5.10;1.52;;;;;;;;;;7387591;19;20480;-70
2022/12/30 13:25:14;;;;;;;3.58;1.63;;;;;;;;;;7386219;19;20009;-70
2022/12/30 13:27:41;;;;;;;2.67;1.50;;;;;;;;;;7383563;19;20002;-71
2022/12/30 13:30:13;;;;;;;1.60;1.20;;;;;;;;;;7389200;19;20003;-71
2022/12/30 13:33:11;;;;;;;2.85;1.60;;;;;;;;;;7386572;19;20002;-72
2022/12/30 13:35:55;;;;;;;3.65;1.40;;;;;;;;;;7393434;19;20012;-74
2022/12/30 13:38:51;;;;;;;2.95;1.73;;;;;;;;;;7393524;19;20101;-73
2022/12/30 13:41:38;;;;;;;2.40;1.45;;;;;;;;;;7393645;19;19995;-68
2022/12/30 13:44:04;;;;;;;2.42;1.38;;;;;;;;;;7387494;19;20341;-73
2022/12/30 13:46:33;;;;;;;4.50;1.40;;;;;;;;;;7391666;19;19999;-71
2022/12/30 13:49:22;;;;;;;2.05;1.35;;;;;;;;;;7389851;19;20010;-71
2022/12/30 13:52:06;;;;;;;2.67;1.45;;;;;;;;;;7390494;19;20028;-69
2022/12/30 13:54:33;;;;;;;4.78;1.42;;;;;;;;;;7388224;19;20009;-70
2022/12/30 13:57:01;;;;;;;2.25;1.50;;;;;;;;;;7392597;19;20007;-71
2022/12/30 13:59:35;;;;;;;5.07;1.80;;;;;;;;;;7391615;19;20326;-70
2022/12/30 14:02:19;;;;;;;2.92;1.60;;;;;;;;;;7396052;19;20010;-71
2022/12/30 14:04:52;;;;;;;3.97;1.52;;;;;;;;;;7392229;19;20003;-69
2022/12/30 14:07:41;;;;;;;5.60;1.75;;;;;;;;;;7396007;19;20005;-67
2022/12/30 14:10:19;;;;;;;11.80;1.73;;;;;;;;;;7395686;19;20013;-69
2022/12/30 14:12:46;;;;;;;4.00;1.50;;;;;;;;;;7394009;19;19994;-69
2022/12/30 14:15:37;;;;;;;3.50;1.52;;;;;;;;;;7395501;19;19994;-69
2022/12/30 14:18:19;;;;;;;2.88;1.75;;;;;;;;;;7393301;19;20018;-69
2022/12/30 14:20:59;;;;;;;3.55;1.50;;;;;;;;;;7394081;19;20003;-68
2022/12/30 14:23:56;;;;;;;4.15;1.52;;;;;;;;;;7391235;19;20003;-69
2022/12/30 14:26:22;;;;;;;4.57;1.73;;;;;;;;;;7393045;19;19995;-69
2022/12/30 14:28:50;;;;;;;4.43;1.67;;;;;;;;;;7395152;19;20006;-69
2022/12/30 14:31:24;;;;;;;3.72;1.70;;;;;;;;;;7393180;19;20003;-69
2022/12/30 14:33:50;;;;;;;2.42;1.48;;;;;;;;;;7395927;19;19991;-68
2022/12/30 14:36:16;;;;;;;4.70;2.38;;;;;;;;;;7394946;19;20146;-69
2022/12/30 14:38:51;;;;;;;2.78;1.35;;;;;;;;;;7394394;19;20003;-68
2022/12/30 14:41:36;;;;;;;3.38;1.75;;;;;;;;;;7393309;19;20002;-68
2022/12/30 14:44:13;;;;;;;4.97;1.55;;;;;;;;;;7390475;19;20326;-68
2022/12/30 14:46:41;;;;;;;2.47;1.70;;;;;;;;;;7393761;19;20015;-67
2022/12/30 14:49:21;;;;;;;3.38;1.80;;;;;;;;;;7394586;19;20016;-66
2022/12/30 14:52:09;;;;;;;4.25;1.60;;;;;;;;;;7401715;19;19995;-66
2022/12/30 14:54:39;;;;;;;4.05;1.77;;;;;;;;;;7390047;19;19998;-67
2022/12/30 14:57:26;;;;;;;5.25;2.00;;;;;;;;;;7393894;19;19995;-67
2022/12/30 15:00:10;;;;;;;3.67;1.45;;;;;;;;;;7393387;19;20450;-69
2022/12/30 15:02:42;;;;;;;1.88;1.30;;;;;;;;;;7391746;19;20027;-68
2022/12/30 15:05:18;;;;;;;4.75;1.65;;;;;;;;;;7391553;19;19999;-68
2022/12/30 15:07:46;;;;;;;6.00;2.08;;;;;;;;;;7393320;19;20007;-69
2022/12/30 15:10:22;;;;;;;3.80;1.67;;;;;;;;;;7396775;19;20448;-68
2022/12/30 15:12:48;;;;;;;3.25;1.77;;;;;;;;;;7391859;19;20008;-69
2022/12/30 15:15:21;;;;;;;2.83;1.63;;;;;;;;;;7393083;19;20062;-67
2022/12/30 15:17:46;;;;;;;3.70;1.77;;;;;;;;;;7392657;19;20006;-68
2022/12/30 15:20:23;;;;;;;6.90;2.30;;;;;;;;;;7392067;19;20489;-68
2022/12/30 15:22:49;;;;;;;6.35;2.30;;;;;;;;;;7394415;19;19999;-68
2022/12/30 15:25:16;;;;;;;4.85;2.20;;;;;;;;;;7391810;19;20475;-68
2022/12/30 15:27:42;;;;;;;4.90;1.92;;;;;;;;;;7393246;19;20003;-67
2022/12/30 15:30:18;;;;;;;4.22;2.20;;;;;;;;;;7392599;19;19999;-68
2022/12/30 15:32:45;;;;;;;5.25;2.13;;;;;;;;;;7391969;19;20074;-68
2022/12/30 15:35:21;;;;;;;3.22;1.85;;;;;;;;;;7390824;19;19999;-67
2022/12/30 15:37:48;;;;;;;4.68;2.20;;;;;;;;;;7392174;19;19999;-68
2022/12/30 15:40:24;;;;;;;5.80;2.10;;;;;;;;;;7389888;19;20006;-69
2022/12/30 15:43:07;;;;;;;3.85;2.00;;;;;;;;;;7390481;19;20006;-67
2022/12/30 15:45:39;;;;;;;5.55;2.40;;;;;;;;;;7392635;19;20006;-68
2022/12/30 15:48:31;;;;;;;3.42;1.90;;;;;;;;;;7391979;19;20014;-68
2022/12/30 15:51:16;;;;;;;5.75;2.33;;;;;;;;;;7392241;19;20035;-68
2022/12/30 15:54:00;;;;;;;4.40;1.90;;;;;;;;;;7390789;19;20041;-68
2022/12/30 15:56:29;;;;;;;4.85;2.15;;;;;;;;;;7391980;19;20002;-69
2022/12/30 15:58:57;;;;;;;3.47;1.90;;;;;;;;;;7391851;19;19999;-69